Time;durP1;ratioP1;P1;durP2;ratioP2;P2;SDS_P1;SDS_P2;PMS_P1;PMS_P2;Temp;Humidity;BMP_temperature;BMP_pressure;BME280_temperature;BME280_humidity;BME280_pressure;Samples;Min_cycle;Max_cycle;Signal;HPM_P1;HPM_P2
2021/01/24 00:02:15;;;;;;;6.25;3.42;;;230.60;1868.80;;;;;;4914108;29;20024;-81
2021/01/24 00:04:41;;;;;;;5.47;3.20;;;230.70;1868.80;;;;;;4915504;29;20032;-80
2021/01/24 00:07:06;;;;;;;4.88;3.30;;;230.60;1868.80;;;;;;4914768;29;20534;-80
2021/01/24 00:09:32;;;;;;;5.40;3.63;;;230.60;1868.80;;;;;;4913366;29;20036;-78
2021/01/24 00:11:58;;;;;;;6.68;3.50;;;230.60;1894.40;;;;;;4918637;29;20064;-80
2021/01/24 00:14:24;;;;;;;6.22;3.22;;;230.50;1894.40;;;;;;4915079;29;20048;-79
2021/01/24 00:16:49;;;;;;;6.07;3.60;;;230.50;1894.40;;;;;;4913937;29;20021;-76
2021/01/24 00:19:15;;;;;;;5.43;3.53;;;230.50;1894.40;;;;;;4913824;29;20458;-81
2021/01/24 00:21:41;;;;;;;4.72;3.35;;;230.50;1894.40;;;;;;4914652;29;20028;-80
2021/01/24 00:24:07;;;;;;;7.00;3.60;;;230.50;1920.00;;;;;;4913730;29;20398;-79
2021/01/24 00:26:32;;;;;;;12.73;3.63;;;230.40;1894.40;;;;;;4916251;29;20091;-79
2021/01/24 00:28:59;;;;;;;4.95;3.20;;;230.50;1894.40;;;;;;4919180;29;20032;-76
2021/01/24 00:31:24;;;;;;;7.55;3.60;;;230.40;1894.40;;;;;;4918814;29;20028;-82
2021/01/24 00:33:50;;;;;;;7.30;3.55;;;230.40;1920.00;;;;;;4917717;29;20509;-77
2021/01/24 00:36:16;;;;;;;5.68;3.35;;;230.50;1920.00;;;;;;4917992;29;20024;-82
2021/01/24 00:38:42;;;;;;;6.82;3.70;;;230.50;1894.40;;;;;;4916173;29;20051;-80
2021/01/24 00:41:09;;;;;;;8.45;3.92;;;230.50;1894.40;;;;;;4918740;29;20076;-82
2021/01/24 00:43:34;;;;;;;6.57;3.50;;;230.60;1894.40;;;;;;4918906;29;20163;-80
2021/01/24 00:46:01;;;;;;;5.75;3.67;;;230.60;1868.80;;;;;;4918408;29;20096;-80
2021/01/24 00:48:26;;;;;;;6.82;3.67;;;230.60;1868.80;;;;;;4917795;29;20043;-79
2021/01/24 00:50:52;;;;;;;6.40;3.20;;;230.50;1868.80;;;;;;4918406;29;20020;-81
2021/01/24 00:53:18;;;;;;;7.30;3.08;;;230.50;1868.80;;;;;;4917699;29;20508;-81
2021/01/24 00:55:45;;;;;;;7.40;3.10;;;230.40;1894.40;;;;;;4917938;29;20048;-78
2021/01/24 00:58:11;;;;;;;6.32;3.22;;;230.40;1894.40;;;;;;4918559;29;20051;-81
2021/01/24 01:00:37;;;;;;;7.07;3.28;;;230.40;1894.40;;;;;;4919139;29;20044;-80
2021/01/24 01:03:03;;;;;;;6.60;3.55;;;205.70;1894.40;;;;;;4929576;29;20111;-80
2021/01/24 01:05:29;;;;;;;7.43;3.05;;;205.70;1894.40;;;;;;4916341;29;20035;-76
2021/01/24 01:07:55;;;;;;;7.03;3.55;;;205.70;1894.40;;;;;;4918434;29;20024;-78
2021/01/24 01:10:20;;;;;;;6.07;2.85;;;205.70;1920.00;;;;;;4917587;29;20049;-80
2021/01/24 01:12:48;;;;;;;4.97;2.92;;;205.70;1894.40;;;;;;4917497;29;20036;-80
2021/01/24 01:15:14;;;;;;;9.02;3.15;;;205.70;1920.00;;;;;;4909625;29;20030;-76
2021/01/24 01:17:39;;;;;;;6.18;3.13;;;205.70;1894.40;;;;;;4917791;29;20119;-78
2021/01/24 01:20:06;;;;;;;4.28;2.72;;;205.70;1894.40;;;;;;4916580;29;20107;-76
2021/01/24 01:22:31;;;;;;;6.60;3.20;;;205.50;1894.40;;;;;;4917825;29;20083;-76
2021/01/24 01:24:57;;;;;;;7.30;3.00;;;205.60;1920.00;;;;;;4917490;29;20028;-81
2021/01/24 01:27:23;;;;;;;6.03;3.05;;;205.50;1920.00;;;;;;4917311;29;20028;-80
2021/01/24 01:29:49;;;;;;;5.00;2.75;;;205.50;1920.00;;;;;;4917497;29;20071;-78
2021/01/24 01:32:15;;;;;;;8.48;3.78;;;205.50;1920.00;;;;;;4917314;29;20482;-80
2021/01/24 01:34:40;;;;;;;6.78;3.40;;;205.50;1920.00;;;;;;4915872;29;20036;-78
2021/01/24 01:37:06;;;;;;;6.63;3.70;;;205.50;1920.00;;;;;;4917194;29;20024;-79
2021/01/24 01:39:32;;;;;;;11.70;3.58;;;205.50;1920.00;;;;;;4916135;29;20042;-82
2021/01/24 01:41:57;;;;;;;6.72;3.20;;;205.50;1920.00;;;;;;4919135;29;20027;-79
2021/01/24 01:44:23;;;;;;;7.22;3.22;;;205.50;1920.00;;;;;;4917434;29;20099;-80
2021/01/24 01:46:52;;;;;;;6.75;2.90;;;205.40;1920.00;;;;;;4899338;29;20034;-77
2021/01/24 01:49:18;;;;;;;5.88;3.00;;;205.40;1920.00;;;;;;4916721;29;20035;-80
2021/01/24 01:51:46;;;;;;;4.72;2.92;;;205.40;1920.00;;;;;;4916386;29;20036;-80
2021/01/24 01:54:12;;;;;;;4.38;2.92;;;205.40;1920.00;;;;;;4916249;29;20043;-76
2021/01/24 01:56:37;;;;;;;5.60;3.03;;;205.40;1945.60;;;;;;4916195;29;20499;-79
2021/01/24 01:59:03;;;;;;;5.03;2.75;;;205.30;1945.60;;;;;;4921865;29;20091;-79
2021/01/24 02:01:50;;;;;;;3.83;2.78;;;205.30;1945.60;;;;;;4916288;29;20381;-80
2021/01/24 02:04:45;;;;;;;6.82;2.80;;;205.30;1945.60;;;;;;4916297;29;20053;-81
2021/01/24 02:07:23;;;;;;;4.53;2.95;;;205.30;1945.60;;;;;;4913467;29;20491;-78
2021/01/24 02:09:56;;;;;;;4.63;2.80;;;205.40;1945.60;;;;;;4915729;29;20132;-78
2021/01/24 02:12:43;;;;;;;5.97;2.63;;;205.40;1920.00;;;;;;4915410;29;20032;-78
2021/01/24 02:15:14;;;;;;;5.60;2.50;;;205.40;1920.00;;;;;;4915860;29;20371;-78
2021/01/24 02:17:44;;;;;;;8.63;2.60;;;205.40;1920.00;;;;;;4916317;29;20028;-78
2021/01/24 02:20:28;;;;;;;5.38;2.60;;;205.50;1920.00;;;;;;4916540;29;20032;-79
2021/01/24 02:22:54;;;;;;;4.40;2.35;;;205.50;1920.00;;;;;;4910767;29;20040;-79
2021/01/24 02:25:39;;;;;;;3.95;2.33;;;205.50;1920.00;;;;;;4915519;29;20490;-81
2021/01/24 02:28:30;;;;;;;4.40;2.22;;;205.60;1894.40;;;;;;4915096;29;20024;-80
2021/01/24 02:30:58;;;;;;;4.40;2.55;;;205.70;1894.40;;;;;;4888592;29;20029;-80
2021/01/24 02:33:28;;;;;;;4.63;2.70;;;205.70;1868.80;;;;;;4916170;29;20051;-79
2021/01/24 02:35:58;;;;;;;6.15;2.53;;;230.40;1868.80;;;;;;4914403;29;20367;-81
2021/01/24 02:38:25;;;;;;;7.13;3.50;;;230.50;1843.20;;;;;;4910940;29;20024;-77
2021/01/24 02:40:53;;;;;;;8.02;4.35;;;230.50;1843.20;;;;;;4914247;29;20103;-77
2021/01/24 02:43:20;;;;;;;7.70;3.10;;;230.50;1843.20;;;;;;4914174;29;20036;-83
2021/01/24 02:45:48;;;;;;;9.38;4.00;;;230.60;1817.60;;;;;;4915753;29;20107;-82
2021/01/24 02:48:17;;;;;;;9.95;4.82;;;230.50;1817.60;;;;;;4915099;29;20103;-81
2021/01/24 02:50:44;;;;;;;10.88;3.90;;;230.60;1817.60;;;;;;4915099;29;20040;-80
2021/01/24 02:53:11;;;;;;;7.65;4.38;;;230.50;1817.60;;;;;;4916033;29;20043;-83
2021/01/24 02:55:37;;;;;;;7.40;3.72;;;230.50;1792.00;;;;;;4911064;29;20028;-82
2021/01/24 02:58:03;;;;;;;10.73;3.60;;;230.50;1817.60;;;;;;4913307;29;20032;-81
2021/01/24 03:00:29;;;;;;;5.03;2.70;;;230.50;1817.60;;;;;;4915539;29;20544;-81
2021/01/24 03:02:56;;;;;;;3.30;2.10;;;231.30;1817.60;;;;;;4913801;29;20371;-80
2021/01/24 03:05:23;;;;;;;6.50;3.30;;;230.50;1817.60;;;;;;4915239;29;20126;-78
2021/01/24 03:07:48;;;;;;;5.85;2.92;;;230.40;1817.60;;;;;;4914196;29;20425;-76
2021/01/24 03:10:15;;;;;;;5.15;2.40;;;230.40;1817.60;;;;;;4915129;29;20048;-80
2021/01/24 03:13:09;;;;;;;4.50;2.35;;;230.40;1817.60;;;;;;4922673;29;20034;-81
2021/01/24 03:15:35;;;;;;;6.22;2.63;;;230.40;1817.60;;;;;;4911894;29;20032;-82
2021/01/24 03:18:03;;;;;;;4.88;2.50;;;230.50;1817.60;;;;;;4913987;29;20034;-83
2021/01/24 03:20:35;;;;;;;3.97;2.20;;;230.50;1817.60;;;;;;4915443;29;20032;-82
2021/01/24 03:23:03;;;;;;;2.70;2.20;;;230.50;1817.60;;;;;;4915101;29;20119;-83
2021/01/24 03:25:30;;;;;;;3.40;2.33;;;230.50;1817.60;;;;;;4915014;29;20569;-77
2021/01/24 03:27:57;;;;;;;4.95;2.33;;;230.50;1817.60;;;;;;4915560;29;20417;-78
2021/01/24 03:30:24;;;;;;;5.70;2.42;;;230.40;1817.60;;;;;;4914103;29;20028;-79
2021/01/24 03:32:49;;;;;;;13.00;7.28;;;205.70;1817.60;;;;;;4914891;29;20032;-80
2021/01/24 03:35:15;;;;;;;5.28;3.28;;;205.60;1843.20;;;;;;4914136;29;20119;-79
2021/01/24 03:37:41;;;;;;;5.30;3.40;;;205.60;1843.20;;;;;;4915159;29;20031;-80
2021/01/24 03:40:07;;;;;;;8.07;4.72;;;205.50;1868.80;;;;;;4914008;29;20028;-78
2021/01/24 03:42:33;;;;;;;5.75;3.25;;;205.20;1868.80;;;;;;4915200;29;20024;-81
2021/01/24 03:44:58;;;;;;;6.45;3.70;;;205.40;1868.80;;;;;;4914666;29;20031;-82
2021/01/24 03:47:24;;;;;;;8.05;3.63;;;205.40;1868.80;;;;;;4915053;29;20043;-82
2021/01/24 03:49:50;;;;;;;16.05;4.82;;;205.30;1868.80;;;;;;4914274;29;20480;-83
2021/01/24 03:52:15;;;;;;;10.75;5.20;;;205.30;1894.40;;;;;;4914581;29;20051;-84
2021/01/24 03:54:41;;;;;;;8.88;4.90;;;205.30;1894.40;;;;;;4915100;29;20052;-81
2021/01/24 03:57:07;;;;;;;8.48;4.45;;;205.20;1894.40;;;;;;4915301;29;20035;-81
2021/01/24 03:59:32;;;;;;;15.45;7.00;;;205.20;1894.40;;;;;;4914547;29;20039;-81
2021/01/24 04:01:58;;;;;;;6.93;3.95;;;205.10;1920.00;;;;;;4914846;29;20441;-81
2021/01/24 04:04:24;;;;;;;10.35;5.53;;;205.10;1920.00;;;;;;4918280;29;20027;-81
2021/01/24 04:06:50;;;;;;;9.82;5.32;;;205.10;1920.00;;;;;;4918149;29;20036;-81
2021/01/24 04:09:15;;;;;;;7.57;3.60;;;205.00;1920.00;;;;;;4917377;29;20028;-81
2021/01/24 04:11:41;;;;;;;8.35;3.95;;;205.00;1920.00;;;;;;4918763;29;20063;-84
2021/01/24 04:14:06;;;;;;;8.07;3.83;;;205.00;1920.00;;;;;;4922617;29;20040;-84
2021/01/24 04:16:32;;;;;;;11.60;4.82;;;205.00;1920.00;;;;;;4917920;29;20036;-83
2021/01/24 04:18:58;;;;;;;10.27;5.60;;;205.00;1920.00;;;;;;4918475;29;20032;-82
2021/01/24 04:21:23;;;;;;;9.00;4.85;;;204.90;1920.00;;;;;;4901164;29;20115;-78
2021/01/24 04:23:49;;;;;;;17.15;9.05;;;204.90;1945.60;;;;;;4918380;29;20041;-79
2021/01/24 04:26:15;;;;;;;12.85;4.50;;;204.90;1945.60;;;;;;4923964;29;20469;-83
2021/01/24 04:28:40;;;;;;;7.90;3.47;;;204.90;1920.00;;;;;;4919782;29;20039;-84
2021/01/24 04:31:06;;;;;;;5.00;2.97;;;204.90;1920.00;;;;;;4917410;29;20025;-81
2021/01/24 04:33:32;;;;;;;7.85;2.95;;;204.90;1920.00;;;;;;4918272;29;20099;-79
2021/01/24 04:35:57;;;;;;;6.43;3.92;;;204.90;1920.00;;;;;;4918353;29;20024;-83
2021/01/24 04:38:23;;;;;;;14.82;7.82;;;204.90;1920.00;;;;;;4916531;29;20028;-81
2021/01/24 04:40:49;;;;;;;6.63;3.45;;;204.90;1920.00;;;;;;4917906;29;20059;-83
2021/01/24 04:43:15;;;;;;;6.55;3.17;;;205.00;1945.60;;;;;;4918388;29;20056;-85
2021/01/24 04:45:41;;;;;;;7.38;3.50;;;205.10;1920.00;;;;;;4918028;29;20059;-83
2021/01/24 04:48:09;;;;;;;6.95;3.33;;;204.80;1920.00;;;;;;4916987;29;20040;-83
2021/01/24 04:50:36;;;;;;;8.05;3.88;;;205.30;1894.40;;;;;;4917973;29;20048;-83
2021/01/24 04:53:02;;;;;;;12.30;4.30;;;230.80;1868.80;;;;;;4915914;29;20469;-77
2021/01/24 04:55:29;;;;;;;8.88;5.03;;;205.40;1868.80;;;;;;4917620;29;20485;-81
2021/01/24 04:57:56;;;;;;;9.32;3.53;;;205.60;1843.20;;;;;;4917303;29;20035;-79
2021/01/24 05:00:22;;;;;;;6.72;3.45;;;205.60;1843.20;;;;;;4920818;29;20058;-83
2021/01/24 05:02:48;;;;;;;5.13;3.00;;;205.60;1843.20;;;;;;4920823;29;20095;-83
2021/01/24 05:05:15;;;;;;;6.32;3.50;;;205.60;1843.20;;;;;;4917631;29;20175;-82
2021/01/24 05:07:50;;;;;;;6.28;2.85;;;205.60;1843.20;;;;;;4917888;29;20087;-81
2021/01/24 05:10:16;;;;;;;8.07;3.03;;;205.70;1817.60;;;;;;4916596;29;20393;-83
2021/01/24 05:12:45;;;;;;;6.15;2.95;;;205.70;1817.60;;;;;;4923176;29;20036;-81
2021/01/24 05:15:11;;;;;;;7.32;3.35;;;230.40;1817.60;;;;;;4917745;29;20103;-84
2021/01/24 05:17:50;;;;;;;6.65;3.38;;;230.40;1792.00;;;;;;4918148;29;20111;-83
2021/01/24 05:20:16;;;;;;;8.40;4.20;;;230.50;1792.00;;;;;;4918105;29;20500;-81
2021/01/24 05:22:43;;;;;;;5.75;2.90;;;230.50;1792.00;;;;;;4908870;29;21759;-82
2021/01/24 05:25:09;;;;;;;8.30;3.47;;;230.50;1792.00;;;;;;4917306;29;20039;-84
2021/01/24 05:27:35;;;;;;;8.85;3.10;;;230.50;1766.40;;;;;;4914286;29;20148;-81
2021/01/24 05:30:01;;;;;;;7.15;4.00;;;230.60;1766.40;;;;;;4918158;29;20099;-84
2021/01/24 05:32:39;;;;;;;6.18;2.63;;;230.60;1766.40;;;;;;4916940;29;20028;-84
2021/01/24 05:35:12;;;;;;;5.85;3.00;;;230.60;1766.40;;;;;;4917238;29;20107;-80
2021/01/24 05:37:44;;;;;;;7.93;2.67;;;230.70;1740.80;;;;;;4916392;29;20032;-81
2021/01/24 05:40:10;;;;;;;7.40;3.20;;;230.70;1766.40;;;;;;4916227;29;20405;-85
2021/01/24 05:42:37;;;;;;;7.13;3.40;;;230.70;1740.80;;;;;;4915471;29;20028;-83
2021/01/24 05:45:13;;;;;;;8.77;3.63;;;230.70;1740.80;;;;;;4916869;29;20032;-79
2021/01/24 05:47:41;;;;;;;9.07;3.92;;;230.70;1740.80;;;;;;4916849;29;20129;-79
2021/01/24 05:50:12;;;;;;;5.68;2.90;;;230.70;1740.80;;;;;;4913766;29;20028;-83
2021/01/24 05:52:39;;;;;;;10.73;3.17;;;230.80;1740.80;;;;;;4914484;29;20055;-82
2021/01/24 05:55:07;;;;;;;5.13;2.75;;;230.70;1740.80;;;;;;4916383;29;20048;-82
2021/01/24 05:57:36;;;;;;;6.20;2.88;;;230.70;1740.80;;;;;;4915743;29;20092;-85
2021/01/24 06:00:05;;;;;;;10.68;3.67;;;230.70;1740.80;;;;;;4916871;29;20042;-83
2021/01/24 06:02:30;;;;;;;5.78;2.65;;;230.70;1740.80;;;;;;4915150;29;20565;-85
2021/01/24 06:04:56;;;;;;;6.28;2.78;;;230.70;1715.20;;;;;;4916951;29;20043;-82
2021/01/24 06:07:23;;;;;;;7.63;3.00;;;230.70;1715.20;;;;;;4916210;29;20031;-80
2021/01/24 06:09:50;;;;;;;12.00;3.17;;;230.60;1740.80;;;;;;4912864;29;20028;-82
2021/01/24 06:12:16;;;;;;;19.02;3.70;;;230.60;1740.80;;;;;;4914102;29;20099;-83
2021/01/24 06:14:47;;;;;;;7.35;2.80;;;230.50;1740.80;;;;;;4919370;29;20046;-83
2021/01/24 06:17:33;;;;;;;4.55;2.78;;;230.50;1766.40;;;;;;4901861;29;20090;-83
2021/01/24 06:20:02;;;;;;;6.00;2.80;;;230.50;1740.80;;;;;;4919464;29;20032;-83
2021/01/24 06:22:48;;;;;;;7.57;2.78;;;230.50;1766.40;;;;;;4916633;29;20031;-85
2021/01/24 06:25:22;;;;;;;4.50;2.63;;;230.50;1740.80;;;;;;4912805;29;20032;-81
2021/01/24 06:27:54;;;;;;;12.88;3.00;;;230.50;1766.40;;;;;;4916009;29;20028;-82
2021/01/24 06:30:25;;;;;;;7.78;2.50;;;230.50;1766.40;;;;;;4916825;29;20051;-84
2021/01/24 06:32:50;;;;;;;3.15;2.40;;;230.60;1740.80;;;;;;4919718;29;20076;-84
2021/01/24 06:35:27;;;;;;;7.18;2.70;;;230.60;1740.80;;;;;;4912080;29;20462;-83
2021/01/24 06:37:59;;;;;;;4.30;2.30;;;230.70;1740.80;;;;;;4921008;29;20031;-81
2021/01/24 06:40:29;;;;;;;7.07;2.65;;;230.70;1740.80;;;;;;4916027;29;20075;-81
2021/01/24 06:43:00;;;;;;;6.78;2.90;;;230.80;1740.80;;;;;;4917257;29;20056;-81
2021/01/24 06:45:26;;;;;;;5.07;2.20;;;230.80;1715.20;;;;;;4915820;29;20032;-82
2021/01/24 06:48:00;;;;;;;8.85;2.70;;;230.80;1715.20;;;;;;4913878;29;20088;-81
2021/01/24 06:50:38;;;;;;;;;;;230.90;1715.20;;;;;;4916654;29;20028;-81
2021/01/24 06:53:13;;;;;;;4.75;2.40;;;231.00;1689.60;;;;;;4915289;29;19926;-81
2021/01/24 06:55:51;;;;;;;4.47;2.30;;;231.20;1664.00;;;;;;4909924;29;20088;-72
2021/01/24 06:58:29;;;;;;;3.05;2.20;;;231.30;1664.00;;;;;;4911718;29;20470;-71
2021/01/24 07:01:30;;;;;;;2.85;2.03;;;256.00;1664.00;;;;;;4914627;29;20028;-72
2021/01/24 07:04:20;;;;;;;3.60;2.17;;;256.10;1664.00;;;;;;4913952;29;20028;-79
2021/01/24 07:06:50;;;;;;;12.48;5.40;;;256.20;1638.40;;;;;;4912955;29;20095;-82
2021/01/24 07:09:27;;;;;;;8.27;3.30;;;256.40;1638.40;;;;;;4914115;29;20047;-82
2021/01/24 07:11:53;;;;;;;5.35;2.50;;;256.50;1612.80;;;;;;4909298;29;20025;-91
2021/01/24 07:14:37;;;;;;;6.22;2.67;;;256.60;1587.20;;;;;;4915178;29;20048;-87
2021/01/24 07:17:11;;;;;;;25.30;10.82;;;256.80;1715.20;;;;;;4908328;29;20543;-72
2021/01/24 07:19:44;;;;;;;;;;;281.60;1766.40;;;;;;4913768;29;20029;-79
2021/01/24 07:22:11;;;;;;;1369.97;717.83;;;282.00;1612.80;;;;;;4912759;29;19911;-86
2021/01/24 07:24:38;;;;;;;18.73;12.50;;;282.20;1689.60;;;;;;4914781;29;20028;-81
2021/01/24 07:27:09;;;;;;;10.45;5.38;;;307.40;1561.60;;;;;;4920653;29;20028;-81
2021/01/24 07:29:36;;;;;;;10.88;3.95;;;308.00;1433.60;;;;;;4918212;29;20036;-81
2021/01/24 07:32:09;;;;;;;14.90;4.10;;;332.90;1484.80;;;;;;4915486;29;20442;-74
2021/01/24 07:34:35;;;;;;;11.57;3.70;;;333.50;1408.00;;;;;;4911491;29;20047;-82
2021/01/24 07:37:01;;;;;;;9.50;4.45;;;358.60;1331.20;;;;;;4911431;29;20056;-79
2021/01/24 07:39:29;;;;;;;6.88;3.10;;;359.10;1305.60;;;;;;4913369;29;20087;-71
2021/01/24 07:41:55;;;;;;;12.32;4.38;;;358.90;1254.40;;;;;;4912066;29;20166;-79
2021/01/24 07:44:21;;;;;;;7.10;3.38;;;384.10;1254.40;;;;;;4913833;29;20106;-79
2021/01/24 07:46:47;;;;;;;8.20;3.05;;;359.20;1254.40;;;;;;4912902;29;20031;-81
2021/01/24 07:49:13;;;;;;;6.03;3.00;;;358.60;1280.00;;;;;;4912869;29;20036;-82
2021/01/24 07:51:39;;;;;;;8.77;3.38;;;333.50;1305.60;;;;;;4911371;29;20040;-82
2021/01/24 07:54:05;;;;;;;16.05;4.63;;;333.10;1356.80;;;;;;4892129;29;21181;-73
2021/01/24 07:56:31;;;;;;;12.77;5.07;;;332.80;1382.40;;;;;;4911637;29;20111;-76
2021/01/24 07:58:57;;;;;;;9.93;3.80;;;308.00;1382.40;;;;;;4911595;29;20096;-75
2021/01/24 08:01:24;;;;;;;18.25;6.68;;;307.90;1382.40;;;;;;4911696;29;20546;-73
2021/01/24 08:03:50;;;;;;;10.18;4.82;;;307.80;1408.00;;;;;;4910731;29;20028;-81
2021/01/24 08:06:16;;;;;;;12.18;5.63;;;307.80;1408.00;;;;;;4913782;29;20504;-72
2021/01/24 08:08:46;;;;;;;11.43;6.05;;;307.80;1408.00;;;;;;4911130;29;20036;-70
2021/01/24 08:11:12;;;;;;;14.68;4.75;;;307.90;1433.60;;;;;;4913057;29;20028;-71
2021/01/24 08:13:40;;;;;;;14.90;5.53;;;307.90;1408.00;;;;;;4910296;29;20040;-70
2021/01/24 08:16:20;;;;;;;27.35;6.32;;;308.00;1408.00;;;;;;4911673;29;20124;-72
2021/01/24 08:18:48;;;;;;;6.20;3.53;;;333.30;1382.40;;;;;;4912012;29;20028;-72
2021/01/24 08:21:15;;;;;;;9.05;4.38;;;333.00;1382.40;;;;;;4913756;29;20537;-70
2021/01/24 08:23:41;;;;;;;12.73;5.13;;;333.40;1331.20;;;;;;4910259;29;20036;-72
2021/01/24 08:26:08;;;;;;;7.88;4.00;;;333.50;1331.20;;;;;;4912891;29;20105;-70
2021/01/24 08:28:34;;;;;;;22.10;6.60;;;333.50;1331.20;;;;;;4917453;29;20107;-73
2021/01/24 08:31:01;;;;;;;14.10;7.93;;;333.70;1331.20;;;;;;4911847;29;20012;-74
2021/01/24 08:33:27;;;;;;;11.43;6.15;;;333.50;1305.60;;;;;;4913676;29;20040;-73
2021/01/24 08:35:54;;;;;;;10.18;6.28;;;333.50;1331.20;;;;;;4914635;29;20032;-73
2021/01/24 08:38:21;;;;;;;11.35;5.50;;;333.40;1331.20;;;;;;4911611;29;20028;-80
2021/01/24 08:40:48;;;;;;;7.93;5.85;;;333.40;1356.80;;;;;;4913908;29;20374;-69
2021/01/24 08:43:17;;;;;;;21.45;9.73;;;333.30;1356.80;;;;;;4909796;29;20474;-71
2021/01/24 08:45:43;;;;;;;18.48;8.25;;;333.20;1356.80;;;;;;4914911;29;20036;-70
2021/01/24 08:48:15;;;;;;;13.05;4.78;;;333.00;1356.80;;;;;;4915614;29;20032;-69
2021/01/24 08:50:41;;;;;;;8.13;3.72;;;333.30;1382.40;;;;;;4916161;29;20063;-70
2021/01/24 08:53:08;;;;;;;18.67;4.70;;;333.10;1382.40;;;;;;4915332;29;20055;-75
2021/01/24 08:55:49;;;;;;;10.80;3.92;;;333.20;1382.40;;;;;;4916366;29;20486;-67
2021/01/24 08:58:29;;;;;;;7.78;3.80;;;333.20;1382.40;;;;;;4917489;29;20474;-75
2021/01/24 09:01:11;;;;;;;16.55;4.65;;;333.20;1382.40;;;;;;4915995;29;20170;-70
2021/01/24 09:03:37;;;;;;;12.45;4.72;;;333.20;1382.40;;;;;;4913043;29;20383;-71
2021/01/24 09:06:13;;;;;;;9.32;3.72;;;333.10;1382.40;;;;;;4917301;29;20032;-72
2021/01/24 09:08:48;;;;;;;11.43;3.80;;;333.20;1356.80;;;;;;4897156;29;20561;-86
2021/01/24 09:11:13;;;;;;;13.27;6.22;;;333.10;1356.80;;;;;;4916476;29;20447;-75
2021/01/24 09:13:39;;;;;;;10.98;4.45;;;333.20;1356.80;;;;;;4917641;29;20055;-70
2021/01/24 09:16:06;;;;;;;14.52;5.05;;;333.10;1356.80;;;;;;4914227;29;20075;-70
2021/01/24 09:18:32;;;;;;;11.90;4.90;;;333.10;1382.40;;;;;;4915371;29;20486;-70
2021/01/24 09:20:58;;;;;;;37.05;20.83;;;333.10;1382.40;;;;;;4916364;29;20024;-71
2021/01/24 09:23:24;;;;;;;44.45;20.70;;;333.20;1382.40;;;;;;4919019;29;20032;-70
2021/01/24 09:25:49;;;;;;;34.28;20.38;;;333.20;1382.40;;;;;;4915328;29;20084;-71
2021/01/24 09:28:15;;;;;;;27.92;14.50;;;333.10;1408.00;;;;;;4916154;29;20513;-71
2021/01/24 09:30:40;;;;;;;24.42;14.38;;;333.30;1382.40;;;;;;4916464;29;20032;-69
2021/01/24 09:33:06;;;;;;;28.42;9.15;;;333.40;1382.40;;;;;;4915324;29;20048;-72
2021/01/24 09:35:32;;;;;;;20.10;6.95;;;333.40;1356.80;;;;;;4916667;29;20063;-71
2021/01/24 09:37:57;;;;;;;12.32;5.60;;;333.50;1331.20;;;;;;4918648;29;20023;-69
2021/01/24 09:40:23;;;;;;;12.80;6.40;;;333.50;1331.20;;;;;;4916559;29;20441;-70
2021/01/24 09:42:49;;;;;;;17.67;6.47;;;333.50;1331.20;;;;;;4915166;29;20031;-70
2021/01/24 09:45:15;;;;;;;16.63;6.93;;;333.60;1331.20;;;;;;4915703;29;20039;-71
2021/01/24 09:47:40;;;;;;;10.93;6.35;;;333.60;1331.20;;;;;;4918486;29;20372;-69
2021/01/24 09:50:07;;;;;;;12.23;6.18;;;333.60;1331.20;;;;;;4914087;29;20103;-69
2021/01/24 09:52:32;;;;;;;17.30;7.93;;;333.40;1331.20;;;;;;4914347;29;20095;-69
2021/01/24 09:54:58;;;;;;;21.38;9.80;;;333.60;1305.60;;;;;;4916760;29;20036;-75
2021/01/24 09:57:24;;;;;;;20.50;9.35;;;333.70;1331.20;;;;;;4915401;29;20103;-76
2021/01/24 09:59:50;;;;;;;17.05;7.25;;;333.70;1305.60;;;;;;4915995;29;20024;-72
2021/01/24 10:02:15;;;;;;;15.73;7.03;;;333.70;1305.60;;;;;;4913670;29;20098;-71
2021/01/24 10:04:41;;;;;;;13.75;6.85;;;333.70;1305.60;;;;;;4914982;29;20028;-70
2021/01/24 10:07:07;;;;;;;16.27;6.80;;;333.70;1305.60;;;;;;4912481;29;20032;-71
2021/01/24 10:09:33;;;;;;;15.40;6.38;;;358.40;1305.60;;;;;;4912217;29;20196;-72
2021/01/24 10:11:58;;;;;;;12.30;5.60;;;358.40;1305.60;;;;;;4911715;29;20036;-74
2021/01/24 10:14:24;;;;;;;14.27;7.95;;;358.50;1305.60;;;;;;4915964;29;20039;-75
2021/01/24 10:16:50;;;;;;;16.95;7.38;;;358.70;1331.20;;;;;;4919077;29;20059;-72
2021/01/24 10:19:15;;;;;;;30.20;8.65;;;358.90;1280.00;;;;;;4914838;29;20036;-74
2021/01/24 10:21:41;;;;;;;16.95;8.32;;;359.00;1254.40;;;;;;4914678;29;20103;-75
2021/01/24 10:24:07;;;;;;;18.58;6.75;;;359.10;1254.40;;;;;;4917411;29;20039;-72
2021/01/24 10:26:33;;;;;;;23.65;6.88;;;359.30;1254.40;;;;;;4916478;29;20509;-75
2021/01/24 10:28:59;;;;;;;17.35;5.85;;;384.00;1254.40;;;;;;4916674;29;20035;-75
2021/01/24 10:31:25;;;;;;;19.00;5.38;;;384.00;1228.80;;;;;;4913133;29;20020;-75
2021/01/24 10:33:50;;;;;;;19.33;6.15;;;359.30;1254.40;;;;;;4916127;29;20067;-74
2021/01/24 10:36:16;;;;;;;14.45;6.75;;;359.20;1280.00;;;;;;4909247;29;20115;-74
2021/01/24 10:38:43;;;;;;;8.85;4.18;;;359.00;1280.00;;;;;;4915817;29;20042;-73
2021/01/24 10:41:09;;;;;;;10.27;4.80;;;358.90;1254.40;;;;;;4899390;29;20103;-76
2021/01/24 10:43:34;;;;;;;12.23;5.45;;;358.80;1280.00;;;;;;4915926;29;20470;-74
2021/01/24 10:46:00;;;;;;;13.00;5.95;;;358.70;1280.00;;;;;;4915888;29;20099;-75
2021/01/24 10:48:26;;;;;;;13.40;5.65;;;358.50;1280.00;;;;;;4911035;29;20028;-74
2021/01/24 10:50:53;;;;;;;14.32;4.90;;;358.40;1331.20;;;;;;4909834;29;20027;-75
2021/01/24 10:53:18;;;;;;;6.40;3.30;;;333.70;1305.60;;;;;;4897142;29;20072;-75
2021/01/24 10:55:44;;;;;;;11.60;3.42;;;333.60;1254.40;;;;;;4912818;29;20060;-76
2021/01/24 10:58:10;;;;;;;12.45;4.72;;;333.50;1305.60;;;;;;4915251;29;20024;-74
2021/01/24 11:00:36;;;;;;;18.90;4.97;;;333.50;1280.00;;;;;;4915191;29;20099;-74
2021/01/24 11:03:02;;;;;;;8.52;2.72;;;333.60;1331.20;;;;;;4898472;29;20459;-74
2021/01/24 11:05:27;;;;;;;10.85;3.10;;;358.40;1280.00;;;;;;4915215;29;20406;-74
2021/01/24 11:07:53;;;;;;;6.10;2.95;;;358.50;1280.00;;;;;;4912329;29;20032;-74
2021/01/24 11:10:19;;;;;;;21.63;13.32;;;358.40;1254.40;;;;;;4915337;29;20550;-74
2021/01/24 11:12:45;;;;;;;13.80;7.20;;;358.50;1280.00;;;;;;4915804;29;20032;-73
2021/01/24 11:15:11;;;;;;;18.48;8.90;;;358.60;1254.40;;;;;;4914385;29;20024;-74
2021/01/24 11:17:37;;;;;;;7.88;4.20;;;358.80;1280.00;;;;;;4914872;29;20024;-72
2021/01/24 11:20:08;;;;;;;10.57;4.45;;;358.80;1228.80;;;;;;4898183;29;20441;-73
2021/01/24 11:22:35;;;;;;;14.38;6.68;;;358.90;1228.80;;;;;;4914535;29;20071;-74
2021/01/24 11:25:01;;;;;;;10.65;6.93;;;359.00;1254.40;;;;;;4915939;29;20025;-74
2021/01/24 11:27:27;;;;;;;14.85;7.85;;;358.90;1228.80;;;;;;4914676;29;20024;-74
2021/01/24 11:29:52;;;;;;;8.70;4.50;;;358.80;1254.40;;;;;;4916147;29;20434;-72
2021/01/24 11:32:18;;;;;;;8.63;4.55;;;358.90;1254.40;;;;;;4907882;29;20497;-70
2021/01/24 11:34:44;;;;;;;7.95;4.40;;;359.00;1228.80;;;;;;4912380;29;20039;-73
2021/01/24 11:37:10;;;;;;;10.13;4.05;;;359.10;1228.80;;;;;;4916466;29;20036;-76
2021/01/24 11:39:36;;;;;;;14.30;4.90;;;359.30;1254.40;;;;;;4912057;29;20548;-75
2021/01/24 11:42:02;;;;;;;14.55;5.10;;;384.10;1228.80;;;;;;4911408;29;20032;-72
2021/01/24 11:44:28;;;;;;;9.80;4.70;;;384.10;1177.60;;;;;;4912103;29;20505;-73
2021/01/24 11:46:54;;;;;;;8.90;4.90;;;384.00;1203.20;;;;;;4913823;29;20036;-82
2021/01/24 11:49:20;;;;;;;8.43;4.20;;;384.00;1228.80;;;;;;4908362;29;20053;-78
2021/01/24 11:51:46;;;;;;;24.40;6.00;;;384.10;1228.80;;;;;;4896164;29;20020;-91
2021/01/24 11:54:12;;;;;;;9.82;3.83;;;384.10;1228.80;;;;;;4914200;29;20494;-84
2021/01/24 11:56:39;;;;;;;60.78;19.33;;;384.00;1228.80;;;;;;4914769;29;20024;-85
2021/01/24 11:59:04;;;;;;;65.35;21.40;;;384.10;1331.20;;;;;;4915115;29;20032;-85
2021/01/24 12:01:30;;;;;;;63.15;26.65;;;384.10;1305.60;;;;;;4913933;29;20399;-73
2021/01/24 12:03:56;;;;;;;78.28;29.27;;;384.20;1305.60;;;;;;4913875;29;20060;-83
2021/01/24 12:06:21;;;;;;;15.43;5.30;;;384.10;1331.20;;;;;;4907407;29;20108;-76
2021/01/24 12:08:47;;;;;;;17.10;5.55;;;384.20;1356.80;;;;;;4905421;29;20367;-72
2021/01/24 12:11:13;;;;;;;14.57;4.78;;;384.20;1331.20;;;;;;4911029;29;20032;-71
2021/01/24 12:13:39;;;;;;;8.45;3.63;;;384.30;1331.20;;;;;;4914174;29;20040;-90
2021/01/24 12:16:05;;;;;;;7.65;3.45;;;384.30;1203.20;;;;;;4915161;29;20455;-81
2021/01/24 12:18:31;;;;;;;6.82;3.60;;;384.10;1177.60;;;;;;4915936;29;20092;-85